Cumari, Brazil
Current Conditions -  °F | °C
As of 7:00 AM on Thursday 27 Nov 2014 (Local Time) from SBUL Reporting Station
Light Rain Light Rain  
Wind Chill: 68°   Ceiling: 10000
Heat Index: 68°   Visibility: 3mi
Dew Point: 66°   Wind: 2mph
Humidity: 94%   Direction: 330°NNW
Pressure: 30"   Gusts: NA
Location:  18.26°S, 48.15°W
Report Text: SBUL 270900Z 33002KT 5000 -RA FEW002 BKN100 20/19 Q1016
Loading
Personal Weather Stations






























Interactive Weather Map New forecast layout! Learn more

10-Day Weather Forecast

Advertisements
Track Severe Weather on mobile